createdAt,value
2023-03-06T00:00:19.400Z,6.88
2023-03-06T00:02:45.966Z,9.13
2023-03-06T00:05:14.459Z,6.05
2023-03-06T00:07:41.232Z,8.10
2023-03-06T00:10:08.634Z,7.13
2023-03-06T00:12:35.199Z,5.47
2023-03-06T00:15:02.643Z,8.32
2023-03-06T00:17:30.568Z,7.55
2023-03-06T00:19:57.294Z,6.95
2023-03-06T00:22:23.761Z,7.88
2023-03-06T00:24:53.492Z,8.80
2023-03-06T00:27:20.832Z,7.13
2023-03-06T00:29:50.494Z,8.68
2023-03-06T00:32:17.029Z,7.90
2023-03-06T00:34:43.556Z,8.27
2023-03-06T00:37:10.057Z,8.27
2023-03-06T00:39:37.022Z,8.95
2023-03-06T00:42:03.638Z,10.25
2023-03-06T00:44:30.109Z,9.55
2023-03-06T00:46:56.592Z,9.93
2023-03-06T00:49:23.103Z,7.20
2023-03-06T00:51:49.586Z,11.00
2023-03-06T00:54:16.153Z,7.60
2023-03-06T00:56:42.625Z,10.48
2023-03-06T00:59:09.406Z,11.93
2023-03-06T01:01:35.970Z,9.52
2023-03-06T01:04:02.861Z,9.95
2023-03-06T01:06:29.437Z,13.57
2023-03-06T01:08:55.925Z,11.52
2023-03-06T01:11:22.623Z,11.10
2023-03-06T01:13:49.244Z,11.40
2023-03-06T01:16:18.997Z,12.30
2023-03-06T01:18:46.134Z,9.70
2023-03-06T01:21:13.871Z,10.20
2023-03-06T01:23:40.570Z,12.82
2023-03-06T01:26:07.808Z,14.25
2023-03-06T01:28:35.137Z,12.45
2023-03-06T01:31:02.078Z,14.55
2023-03-06T01:33:28.616Z,13.55
2023-03-06T01:35:55.139Z,14.23
2023-03-06T01:38:22.019Z,14.25
2023-03-06T01:40:48.529Z,15.23
2023-03-06T01:43:24.070Z,17.05
2023-03-06T01:45:50.583Z,13.57
2023-03-06T01:48:20.539Z,14.27
2023-03-06T01:50:47.570Z,14.80
2023-03-06T01:53:15.534Z,17.15
2023-03-06T01:55:42.113Z,15.63
2023-03-06T01:58:15.264Z,13.25
2023-03-06T02:00:41.809Z,14.32
2023-03-06T02:03:13.159Z,17.00
2023-03-06T02:05:41.109Z,13.25
2023-03-06T02:08:11.257Z,15.10
2023-03-06T02:10:37.903Z,13.65
2023-03-06T02:13:04.774Z,14.25
2023-03-06T02:15:31.372Z,13.05
2023-03-06T02:18:00.445Z,13.65
2023-03-06T02:20:34.231Z,14.27
2023-03-06T02:23:13.313Z,13.68
2023-03-06T02:25:48.569Z,16.90
2023-03-06T02:28:21.590Z,14.30
2023-03-06T02:30:50.871Z,16.65
2023-03-06T02:33:23.912Z,14.23
2023-03-06T02:35:52.824Z,13.75
2023-03-06T02:38:22.123Z,13.95
2023-03-06T02:40:51.337Z,16.17
2023-03-06T02:43:23.164Z,14.27
2023-03-06T02:45:51.693Z,11.82
2023-03-06T02:48:19.364Z,15.23
2023-03-06T02:50:47.574Z,16.98
2023-03-06T02:53:16.236Z,13.93
2023-03-06T02:55:43.242Z,14.73
2023-03-06T02:58:09.827Z,14.25
2023-03-06T03:00:36.634Z,15.45
2023-03-06T03:03:03.942Z,16.10
2023-03-06T03:05:30.688Z,15.48
2023-03-06T03:07:57.215Z,14.23
2023-03-06T03:10:24.527Z,16.80
2023-03-06T03:12:51.285Z,17.17
2023-03-06T03:15:18.073Z,14.73
2023-03-06T03:17:44.637Z,17.75
2023-03-06T03:20:14.278Z,14.70
2023-03-06T03:22:40.835Z,13.75
2023-03-06T03:25:08.279Z,12.25
2023-03-06T03:27:34.822Z,15.48
2023-03-06T03:30:01.339Z,14.57
2023-03-06T03:32:27.823Z,13.50
2023-03-06T03:34:55.920Z,15.85
2023-03-06T03:37:22.754Z,16.15
2023-03-06T03:39:49.429Z,13.55
2023-03-06T03:42:15.960Z,15.15
2023-03-06T03:44:42.533Z,14.13
2023-03-06T03:47:09.003Z,16.85
2023-03-06T03:49:35.498Z,13.63
2023-03-06T03:52:01.986Z,15.45
2023-03-06T03:54:28.895Z,15.80
2023-03-06T03:56:55.696Z,16.30
2023-03-06T03:59:23.013Z,11.60
2023-03-06T04:01:49.669Z,14.32
2023-03-06T04:04:16.462Z,17.05
2023-03-06T04:06:42.928Z,17.75
2023-03-06T04:09:09.957Z,15.73
2023-03-06T04:11:36.539Z,14.38
2023-03-06T04:14:03.448Z,12.10
2023-03-06T04:16:29.974Z,17.15
2023-03-06T04:18:56.539Z,15.77
2023-03-06T04:21:23.069Z,14.30
2023-03-06T04:23:49.571Z,14.35
2023-03-06T04:26:16.048Z,13.55
2023-03-06T04:28:42.548Z,13.68
2023-03-06T04:31:10.616Z,18.00
2023-03-06T04:33:37.197Z,15.20
2023-03-06T04:36:04.018Z,11.30
2023-03-06T04:38:30.688Z,13.57
2023-03-06T04:40:57.235Z,15.43
2023-03-06T04:43:23.855Z,16.67
2023-03-06T04:45:50.385Z,15.20
2023-03-06T04:48:18.351Z,15.75
2023-03-06T04:50:45.338Z,13.35
2023-03-06T04:53:11.799Z,16.73
2023-03-06T04:55:38.537Z,15.38
2023-03-06T04:58:05.017Z,14.27
2023-03-06T05:00:31.796Z,16.27
2023-03-06T05:03:00.615Z,13.27
2023-03-06T05:05:28.152Z,15.77
2023-03-06T05:07:55.061Z,14.30
2023-03-06T05:10:22.018Z,13.25
2023-03-06T05:12:48.752Z,14.02
2023-03-06T05:15:16.674Z,9.40
2023-03-06T05:17:43.583Z,16.00
2023-03-06T05:20:11.615Z,13.98
2023-03-06T05:22:38.169Z,15.25
2023-03-06T05:25:05.354Z,15.32
2023-03-06T05:27:32.598Z,15.15
2023-03-06T05:29:59.458Z,15.18
2023-03-06T05:32:26.358Z,15.75
2023-03-06T05:34:52.917Z,14.63
2023-03-06T05:37:19.442Z,14.02
2023-03-06T05:39:46.246Z,16.80
2023-03-06T05:42:12.792Z,15.02
2023-03-06T05:44:39.709Z,19.80
2023-03-06T05:47:06.271Z,15.38
2023-03-06T05:49:34.912Z,20.88
2023-03-06T05:52:04.301Z,17.13
2023-03-06T05:54:36.170Z,13.55
2023-03-06T05:57:04.892Z,17.48
2023-03-06T05:59:33.046Z,15.32
2023-03-06T06:02:01.345Z,18.02
2023-03-06T06:04:28.449Z,19.55
2023-03-06T06:06:59.832Z,17.90
2023-03-06T06:09:27.126Z,13.48
2023-03-06T06:11:56.197Z,14.52
2023-03-06T06:14:23.273Z,14.15
2023-03-06T06:16:49.840Z,15.93
2023-03-06T06:19:20.240Z,16.50
2023-03-06T06:21:48.787Z,17.80
2023-03-06T06:24:16.813Z,14.82
2023-03-06T06:26:43.831Z,15.88
2023-03-06T06:29:11.301Z,13.95
2023-03-06T06:32:06.312Z,15.65
2023-03-06T06:34:32.862Z,15.43
2023-03-06T06:36:59.476Z,20.02
2023-03-06T06:39:26.033Z,21.77
2023-03-06T06:42:05.909Z,17.00
2023-03-06T06:44:39.323Z,20.25
2023-03-06T06:47:24.022Z,20.92
2023-03-06T06:49:55.598Z,17.38
2023-03-06T06:52:23.527Z,22.10
2023-03-06T06:54:50.177Z,16.15
2023-03-06T06:57:17.501Z,15.00
2023-03-06T06:59:44.100Z,24.83
2023-03-06T07:02:15.942Z,18.83
2023-03-06T07:04:56.541Z,19.83
2023-03-06T07:07:27.579Z,19.42
2023-03-06T07:09:55.203Z,21.63
2023-03-06T07:12:21.728Z,18.38
2023-03-06T07:14:48.491Z,18.27
2023-03-06T07:17:15.006Z,18.92
2023-03-06T07:19:41.532Z,17.92
2023-03-06T07:22:08.293Z,22.15
2023-03-06T07:24:35.036Z,20.17
2023-03-06T07:27:01.554Z,15.50
2023-03-06T07:29:28.120Z,14.85
2023-03-06T07:31:54.658Z,13.73
2023-03-06T07:34:21.213Z,19.95
2023-03-06T07:36:47.692Z,19.05
2023-03-06T07:39:14.157Z,15.55
2023-03-06T07:41:40.633Z,17.63
2023-03-06T07:44:07.194Z,19.02
2023-03-06T07:46:34.159Z,15.55
2023-03-06T07:49:00.773Z,17.52
2023-03-06T07:51:27.270Z,16.15
2023-03-06T07:53:53.889Z,17.25
2023-03-06T07:56:20.570Z,14.98
2023-03-06T07:58:48.000Z,13.68
2023-03-06T08:01:19.672Z,20.23
2023-03-06T08:03:47.188Z,15.73
2023-03-06T08:06:19.417Z,16.83
2023-03-06T08:08:47.422Z,21.77
2023-03-06T08:11:16.686Z,19.05
2023-03-06T08:13:44.385Z,19.48
2023-03-06T08:16:11.238Z,21.00
2023-03-06T08:18:39.947Z,21.90
2023-03-06T08:21:11.598Z,17.90
2023-03-06T08:23:39.137Z,23.48
2023-03-06T08:26:08.450Z,25.55
2023-03-06T08:31:24.401Z,22.52
2023-03-06T08:33:50.886Z,25.60
2023-03-06T08:36:17.422Z,19.60
2023-03-06T08:38:44.021Z,24.23
2023-03-06T08:41:10.563Z,27.70
2023-03-06T08:43:37.284Z,20.65
2023-03-06T08:46:04.041Z,24.33
2023-03-06T08:48:30.753Z,23.38
2023-03-06T08:50:57.311Z,26.52
2023-03-06T08:53:40.474Z,29.85
2023-03-06T08:56:14.859Z,23.42
2023-03-06T08:58:41.342Z,23.80
2023-03-06T09:01:15.720Z,25.17
2023-03-06T09:03:42.831Z,16.05
2023-03-06T09:06:09.380Z,17.65
2023-03-06T09:08:35.936Z,14.07
2023-03-06T09:11:02.603Z,20.50
2023-03-06T09:13:29.153Z,20.70
2023-03-06T09:15:55.808Z,21.02
2023-03-06T09:18:22.469Z,21.83
2023-03-06T09:20:49.034Z,20.55
2023-03-06T09:23:15.589Z,24.35
2023-03-06T09:25:42.270Z,23.52
2023-03-06T09:28:11.605Z,22.45
2023-03-06T09:30:40.642Z,24.58
2023-03-06T09:33:07.838Z,19.95
2023-03-06T09:35:34.440Z,25.15
2023-03-06T09:38:01.008Z,24.73
2023-03-06T09:41:06.202Z,24.15
2023-03-06T09:43:43.469Z,24.83
2023-03-06T09:46:31.007Z,24.58
2023-03-06T09:49:10.542Z,23.77
2023-03-06T09:52:03.264Z,23.20
2023-03-06T09:54:38.391Z,22.98
2023-03-06T09:57:15.190Z,13.93
2023-03-06T09:59:45.234Z,19.50
2023-03-06T10:02:22.869Z,18.25
2023-03-06T10:04:54.687Z,21.83
2023-03-06T10:07:27.565Z,23.52
2023-03-06T10:09:59.872Z,23.20
2023-03-06T10:12:36.077Z,21.35
2023-03-06T10:15:17.990Z,21.63
2023-03-06T10:17:45.223Z,19.98
2023-03-06T10:20:23.871Z,19.02
2023-03-06T10:23:12.257Z,20.27
2023-03-06T10:25:51.366Z,19.13
2023-03-06T10:28:22.577Z,17.85
2023-03-06T10:31:02.615Z,20.70
2023-03-06T10:33:54.172Z,19.45
2023-03-06T10:36:23.394Z,21.15
2023-03-06T10:41:31.741Z,14.95
2023-03-06T10:44:01.031Z,16.23
2023-03-06T10:46:29.777Z,17.85
2023-03-06T10:49:28.456Z,11.35
2023-03-06T10:52:10.272Z,15.55
2023-03-06T10:54:39.630Z,13.55
2023-03-06T10:57:32.359Z,16.80
2023-03-06T11:00:06.538Z,15.25
2023-03-06T11:02:37.244Z,12.27
2023-03-06T11:05:06.242Z,15.38
2023-03-06T11:07:34.779Z,13.57
2023-03-06T11:10:20.204Z,13.73
2023-03-06T11:13:02.845Z,14.13
2023-03-06T11:15:30.106Z,14.60
2023-03-06T11:18:04.490Z,13.18
2023-03-06T11:20:52.337Z,11.40
2023-03-06T11:23:19.426Z,15.13
2023-03-06T11:25:48.613Z,9.18
2023-03-06T11:28:27.316Z,14.38
2023-03-06T11:30:56.883Z,14.07
2023-03-06T11:33:49.577Z,15.55
2023-03-06T11:36:30.675Z,14.43
2023-03-06T11:38:57.162Z,15.98
2023-03-06T11:41:33.600Z,16.55
2023-03-06T11:44:19.940Z,16.65
2023-03-06T11:47:11.177Z,8.77
2023-03-06T11:49:45.546Z,14.25
2023-03-06T11:52:23.080Z,18.10
2023-03-06T11:54:55.384Z,16.45
2023-03-06T11:57:39.421Z,13.40
2023-03-06T12:00:28.531Z,15.13
2023-03-06T12:02:54.991Z,13.75
2023-03-06T12:05:45.841Z,13.43
2023-03-06T12:08:31.416Z,14.10
2023-03-06T12:11:05.219Z,14.05
2023-03-06T12:13:53.703Z,11.88
2023-03-06T12:16:51.776Z,15.43
2023-03-06T12:19:47.579Z,11.45
2023-03-06T12:22:57.898Z,8.70
2023-03-06T12:25:34.677Z,10.48
2023-03-06T12:28:07.122Z,8.38
2023-03-06T12:30:48.771Z,8.73
2023-03-06T12:33:40.822Z,10.75
2023-03-06T12:36:38.980Z,9.13
2023-03-06T12:39:26.188Z,8.68
2023-03-06T12:41:59.178Z,7.47
2023-03-06T12:45:04.887Z,6.07
2023-03-06T12:47:38.728Z,6.72
2023-03-06T12:50:17.942Z,7.85
2023-03-06T12:52:45.759Z,5.78
2023-03-06T12:55:16.770Z,4.22
2023-03-06T12:57:43.433Z,4.63
2023-03-06T13:00:34.188Z,5.35
2023-03-06T13:03:14.688Z,7.60
2023-03-06T13:05:50.212Z,4.35
2023-03-06T13:08:36.304Z,8.82
2023-03-06T13:11:40.082Z,8.32
2023-03-06T13:14:35.844Z,7.38
2023-03-06T13:17:36.593Z,8.73
2023-03-06T13:20:15.644Z,6.20
2023-03-06T13:22:44.266Z,8.55
2023-03-06T13:25:16.967Z,8.52
2023-03-06T13:27:53.331Z,10.38
2023-03-06T13:30:39.213Z,9.15
2023-03-06T13:33:25.765Z,11.90
2023-03-06T13:35:55.762Z,11.60
2023-03-06T13:38:33.673Z,10.88
2023-03-06T13:41:24.982Z,11.13
2023-03-06T13:43:56.364Z,12.25
2023-03-06T13:46:35.786Z,13.57
2023-03-06T13:49:08.681Z,14.32
2023-03-06T13:51:36.573Z,11.27
2023-03-06T13:54:20.890Z,16.23
2023-03-06T13:57:03.699Z,15.15
2023-03-06T14:00:08.121Z,15.40
2023-03-06T14:03:01.036Z,15.00
2023-03-06T14:05:53.669Z,14.68
2023-03-06T14:08:25.611Z,14.10
2023-03-06T14:11:20.410Z,11.52
2023-03-06T14:13:52.125Z,13.70
2023-03-06T14:16:29.095Z,16.83
2023-03-06T14:18:59.909Z,13.85
2023-03-06T14:21:45.396Z,12.55
2023-03-06T14:24:16.956Z,15.60
2023-03-06T14:26:49.611Z,15.23
2023-03-06T14:29:24.290Z,14.57
2023-03-06T14:31:58.624Z,13.82
2023-03-06T14:34:40.105Z,14.27
2023-03-06T14:37:18.812Z,14.00
2023-03-06T14:39:46.780Z,15.73
2023-03-06T14:42:20.303Z,15.27
2023-03-06T14:44:48.447Z,14.38
2023-03-06T14:47:29.834Z,15.70
2023-03-06T14:50:28.888Z,13.15
2023-03-06T14:53:04.355Z,13.57
2023-03-06T14:55:35.011Z,14.25
2023-03-06T14:58:16.209Z,16.73
2023-03-06T15:00:50.119Z,13.15
2023-03-06T15:03:20.550Z,16.77
2023-03-06T15:05:48.197Z,12.63
2023-03-06T15:08:22.012Z,10.98
2023-03-06T15:11:00.331Z,16.75
2023-03-06T15:13:29.562Z,13.57
2023-03-06T15:16:04.369Z,10.23
2023-03-06T15:18:39.704Z,11.55
2023-03-06T15:21:07.884Z,12.27
2023-03-06T15:23:43.853Z,14.65
2023-03-06T15:26:36.981Z,19.02
2023-03-06T15:29:10.625Z,16.10
2023-03-06T15:31:45.754Z,17.02
2023-03-06T15:34:12.290Z,17.33
2023-03-06T15:36:39.705Z,17.20
2023-03-06T15:39:35.838Z,16.42
2023-03-06T15:42:16.810Z,15.00
2023-03-06T15:44:46.587Z,18.52
2023-03-06T15:47:13.107Z,19.15
2023-03-06T15:49:40.222Z,15.95
2023-03-06T15:52:07.576Z,15.85
2023-03-06T15:54:34.156Z,16.70
2023-03-06T15:57:03.242Z,14.23
2023-03-06T16:02:12.626Z,17.13
2023-03-06T16:04:39.337Z,20.08
2023-03-06T16:07:06.182Z,17.55
2023-03-06T16:09:32.872Z,17.42
2023-03-06T16:11:59.511Z,17.23
2023-03-06T16:14:26.216Z,17.40
2023-03-06T16:16:54.283Z,16.60
2023-03-06T16:19:27.819Z,17.50
2023-03-06T16:21:55.793Z,17.05
2023-03-06T16:24:23.180Z,17.10
2023-03-06T16:26:53.024Z,17.17
2023-03-06T16:29:22.335Z,17.55
2023-03-06T16:31:49.028Z,17.67
2023-03-06T16:34:35.863Z,16.73
2023-03-06T16:37:02.447Z,19.75
2023-03-06T16:39:28.973Z,14.55
2023-03-06T16:41:55.519Z,15.25
2023-03-06T16:44:22.236Z,16.90
2023-03-06T16:46:50.120Z,18.25
2023-03-06T16:49:20.099Z,17.58
2023-03-06T16:51:47.080Z,17.52
2023-03-06T16:54:13.934Z,16.00
2023-03-06T16:56:40.620Z,15.93
2023-03-06T16:59:07.270Z,16.63
2023-03-06T17:01:34.128Z,16.77
2023-03-06T17:04:01.000Z,18.05
2023-03-06T17:06:28.418Z,18.02
2023-03-06T17:08:55.011Z,15.60
2023-03-06T17:11:21.667Z,17.52
2023-03-06T17:13:48.705Z,17.88
2023-03-06T17:16:16.528Z,20.08
2023-03-06T17:18:45.520Z,17.25
2023-03-06T17:21:15.677Z,16.55
2023-03-06T17:23:42.870Z,19.05
2023-03-06T17:26:15.295Z,17.27
2023-03-06T17:28:42.545Z,18.35
2023-03-06T17:31:19.721Z,18.90
2023-03-06T17:33:46.914Z,18.85
2023-03-06T17:36:14.641Z,15.93
2023-03-06T17:38:42.120Z,17.63
2023-03-06T17:41:10.198Z,17.85
2023-03-06T17:43:37.959Z,18.17
2023-03-06T17:46:06.729Z,18.10
2023-03-06T17:48:33.681Z,15.95
2023-03-06T17:51:00.414Z,16.83
2023-03-06T17:53:28.058Z,14.13
2023-03-06T17:55:55.921Z,17.77
2023-03-06T17:58:22.554Z,14.57
2023-03-06T18:00:49.300Z,18.52
2023-03-06T18:03:17.287Z,17.88
2023-03-06T18:05:44.047Z,16.30
2023-03-06T18:08:10.821Z,17.52
2023-03-06T18:10:41.711Z,14.95
2023-03-06T18:13:10.034Z,22.17
2023-03-06T18:15:41.180Z,18.13
2023-03-06T18:18:08.466Z,16.48
2023-03-06T18:20:40.299Z,15.63
2023-03-06T18:23:06.971Z,18.33
2023-03-06T18:25:33.693Z,17.02
2023-03-06T18:28:00.491Z,19.92
2023-03-06T18:30:27.535Z,21.55
2023-03-06T18:32:54.863Z,21.75
2023-03-06T18:35:21.770Z,18.67
2023-03-06T18:37:48.450Z,14.65
2023-03-06T18:40:15.294Z,18.75
2023-03-06T18:42:42.122Z,16.00
2023-03-06T18:45:09.577Z,18.52
2023-03-06T18:47:36.235Z,17.38
2023-03-06T18:50:03.225Z,20.15
2023-03-06T18:52:30.046Z,18.08
2023-03-06T18:54:56.723Z,18.17
2023-03-06T18:57:23.475Z,17.25
2023-03-06T18:59:50.131Z,12.50
2023-03-06T19:02:17.158Z,19.13
2023-03-06T19:04:43.794Z,19.27
2023-03-06T19:07:10.356Z,17.15
2023-03-06T19:09:36.909Z,22.17
2023-03-06T19:12:03.672Z,8.57
2023-03-06T19:14:30.250Z,18.58
2023-03-06T19:16:57.020Z,18.77
2023-03-06T19:19:26.955Z,17.40
2023-03-06T19:21:53.877Z,18.80
2023-03-06T19:24:20.443Z,14.40
2023-03-06T19:26:47.093Z,15.27
2023-03-06T19:29:13.756Z,17.20
2023-03-06T19:31:41.560Z,16.10
2023-03-06T19:34:08.495Z,18.58
2023-03-06T19:36:35.229Z,16.73
2023-03-06T19:39:03.905Z,15.80
2023-03-06T19:41:30.684Z,19.20
2023-03-06T19:43:59.207Z,15.73
2023-03-06T19:46:27.230Z,18.27
2023-03-06T19:48:56.167Z,12.63
2023-03-06T19:51:23.162Z,17.58
2023-03-06T19:53:49.854Z,16.35
2023-03-06T19:56:19.924Z,16.13
2023-03-06T19:58:46.548Z,19.70
2023-03-06T20:01:18.084Z,14.75
2023-03-06T20:03:45.779Z,15.55
2023-03-06T20:06:18.575Z,20.58
2023-03-06T20:08:48.266Z,19.60
2023-03-06T20:11:33.421Z,16.60
2023-03-06T20:14:01.754Z,19.83
2023-03-06T20:16:29.156Z,19.10
2023-03-06T20:18:59.147Z,18.75
2023-03-06T20:21:27.614Z,12.45
2023-03-06T20:23:56.935Z,19.65
2023-03-06T20:28:50.708Z,14.32
2023-03-06T20:31:24.224Z,17.85
2023-03-06T20:33:52.968Z,14.43
2023-03-06T20:36:31.992Z,18.50
2023-03-06T20:39:06.103Z,13.35
2023-03-06T20:41:33.052Z,19.08
2023-03-06T20:44:01.582Z,16.05
2023-03-06T20:46:28.771Z,20.52
2023-03-06T20:48:56.066Z,20.10
2023-03-06T20:51:32.224Z,19.40
2023-03-06T20:54:00.854Z,21.67
2023-03-06T20:56:29.728Z,18.83
2023-03-06T20:58:57.013Z,19.17
2023-03-06T21:01:29.940Z,20.20
2023-03-06T21:03:58.095Z,14.15
2023-03-06T21:06:26.380Z,19.58
2023-03-06T21:08:52.936Z,16.13
2023-03-06T21:11:19.583Z,22.48
2023-03-06T21:13:46.253Z,19.63
2023-03-06T21:16:16.159Z,18.30
2023-03-06T21:18:43.326Z,17.83
2023-03-06T21:21:13.248Z,21.55
2023-03-06T21:23:40.032Z,18.48
2023-03-06T21:26:06.834Z,25.67
2023-03-06T21:28:34.130Z,21.02
2023-03-06T21:31:02.076Z,20.25
2023-03-06T21:33:28.898Z,15.40
2023-03-06T21:35:55.724Z,20.67
2023-03-06T21:38:22.305Z,21.98
2023-03-06T21:40:48.879Z,20.88
2023-03-06T21:43:17.452Z,20.10
2023-03-06T21:45:46.134Z,23.70
2023-03-06T21:48:13.965Z,14.32
2023-03-06T21:50:41.167Z,20.52
2023-03-06T21:53:08.612Z,19.70
2023-03-06T21:55:40.431Z,19.10
2023-03-06T21:58:07.242Z,18.35
2023-03-06T22:00:36.278Z,19.25
2023-03-06T22:03:04.737Z,17.58
2023-03-06T22:05:34.490Z,21.20
2023-03-06T22:08:01.180Z,22.88
2023-03-06T22:10:28.165Z,18.45
2023-03-06T22:12:54.670Z,21.30
2023-03-06T22:15:21.916Z,20.10
2023-03-06T22:17:48.728Z,19.60
2023-03-06T22:20:15.739Z,20.63
2023-03-06T22:22:43.674Z,19.50
2023-03-06T22:25:11.909Z,22.48
2023-03-06T22:27:38.550Z,21.48
2023-03-06T22:30:05.657Z,21.50
2023-03-06T22:32:32.275Z,24.48
2023-03-06T22:34:58.798Z,22.85
2023-03-06T22:37:25.283Z,21.38
2023-03-06T22:39:51.815Z,22.80
2023-03-06T22:42:18.332Z,22.08
2023-03-06T22:44:46.249Z,14.43
2023-03-06T22:47:12.750Z,22.08
2023-03-06T22:49:39.305Z,22.63
2023-03-06T22:52:06.039Z,17.42
2023-03-06T22:54:32.608Z,18.88
2023-03-06T22:56:59.087Z,16.38
2023-03-06T22:59:25.605Z,20.65
2023-03-06T23:01:52.111Z,17.90
2023-03-06T23:04:18.635Z,16.08
2023-03-06T23:06:46.919Z,17.55
2023-03-06T23:09:20.429Z,15.73
2023-03-06T23:11:47.727Z,17.02
2023-03-06T23:14:15.565Z,18.42
2023-03-06T23:16:42.050Z,14.68
2023-03-06T23:19:08.610Z,14.93
2023-03-06T23:21:35.406Z,12.00
2023-03-06T23:24:02.238Z,16.08
2023-03-06T23:26:30.599Z,14.27
2023-03-06T23:28:58.459Z,9.48
2023-03-06T23:31:30.702Z,12.88
2023-03-06T23:33:59.272Z,15.25
2023-03-06T23:36:26.604Z,9.70
2023-03-06T23:38:53.191Z,11.80
2023-03-06T23:41:21.252Z,12.45
2023-03-06T23:43:49.656Z,8.90
2023-03-06T23:46:17.297Z,12.23
2023-03-06T23:48:44.402Z,8.35
2023-03-06T23:51:17.445Z,9.32
2023-03-06T23:53:45.769Z,7.65
2023-03-06T23:56:12.994Z,8.68
2023-03-06T23:58:39.637Z,8.85
